Time;durP1;ratioP1;P1;durP2;ratioP2;P2;SDS_P1;SDS_P2;PMS_P1;PMS_P2;Temp;Humidity;BMP_temperature;BMP_pressure;BME280_temperature;BME280_humidity;BME280_pressure;Samples;Min_cycle;Max_cycle;Signal;HPM_P1;HPM_P2
2023/04/16 00:01:50;;;;;;;25.30;21.57;;;29.50;80.00;;;;;;1784509;79;21228;-82
2023/04/16 00:04:22;;;;;;;27.22;20.08;;;29.50;79.80;;;;;;1786808;78;21262;-83
2023/04/16 00:06:53;;;;;;;31.48;21.07;;;29.60;80.00;;;;;;1783743;79;21651;-82
2023/04/16 00:09:24;;;;;;;24.55;21.15;;;29.60;79.80;;;;;;1790042;79;21096;-82
2023/04/16 00:11:55;;;;;;;30.27;21.50;;;29.60;79.90;;;;;;1780548;79;21252;-82
2023/04/16 00:14:26;;;;;;;26.35;21.73;;;29.60;79.90;;;;;;1780619;79;21605;-82
2023/04/16 00:16:57;;;;;;;24.00;20.48;;;29.60;79.90;;;;;;1788776;79;21820;-83
2023/04/16 00:19:29;;;;;;;25.35;21.77;;;29.60;79.80;;;;;;1785292;79;21175;-81
2023/04/16 00:22:00;;;;;;;27.13;22.60;;;29.60;79.80;;;;;;1806530;79;21102;-83
2023/04/16 00:24:31;;;;;;;26.02;22.75;;;29.60;79.60;;;;;;1775980;79;21249;-83
2023/04/16 00:27:02;;;;;;;26.50;20.95;;;29.60;79.90;;;;;;1793751;79;21768;-81
2023/04/16 00:29:33;;;;;;;30.68;20.05;;;29.60;80.00;;;;;;1794170;79;21187;-81
2023/04/16 00:32:06;;;;;;;23.75;20.48;;;29.60;79.90;;;;;;1794785;79;21117;-82
2023/04/16 00:34:37;;;;;;;24.50;21.10;;;29.60;80.10;;;;;;1790076;79;21623;-82
2023/04/16 00:37:08;;;;;;;25.62;21.77;;;29.60;79.60;;;;;;1795488;79;21180;-83
2023/04/16 00:39:39;;;;;;;24.25;21.45;;;29.60;80.30;;;;;;1796855;79;21572;-82
2023/04/16 00:42:10;;;;;;;26.00;21.73;;;29.70;80.10;;;;;;1788474;79;21108;-82
2023/04/16 00:44:41;;;;;;;26.95;21.07;;;29.60;79.70;;;;;;1788531;79;21171;-81
2023/04/16 00:47:13;;;;;;;24.60;20.68;;;29.70;79.70;;;;;;1788494;79;21230;-81
2023/04/16 00:49:45;;;;;;;25.90;21.17;;;29.70;79.90;;;;;;1787965;79;21139;-83
2023/04/16 00:52:18;;;;;;;23.50;20.77;;;29.70;80.30;;;;;;1785584;79;21198;-82
2023/04/16 00:54:49;;;;;;;25.05;21.77;;;29.60;80.10;;;;;;1790834;79;21544;-82
2023/04/16 00:57:23;;;;;;;29.02;22.45;;;29.70;80.40;;;;;;1784444;79;21143;-82
2023/04/16 00:59:56;;;;;;;24.15;21.12;;;29.70;80.90;;;;;;1790828;79;21609;-82
2023/04/16 01:02:34;;;;;;;26.48;20.52;;;29.70;81.20;;;;;;1777507;79;21218;-82
2023/04/16 01:05:06;;;;;;;22.27;19.87;;;29.70;80.90;;;;;;1849692;76;21227;-82
2023/04/16 01:07:37;;;;;;;22.70;19.55;;;29.80;80.90;;;;;;1823445;77;21143;-81
2023/04/16 01:10:09;;;;;;;22.73;19.85;;;29.80;81.00;;;;;;1875435;76;21164;-81
2023/04/16 01:12:40;;;;;;;24.20;20.17;;;29.80;80.90;;;;;;1825622;77;21534;-82
2023/04/16 01:15:11;;;;;;;26.17;20.15;;;29.80;81.20;;;;;;1807685;77;21161;-82
2023/04/16 01:17:44;;;;;;;24.95;19.77;;;29.80;81.00;;;;;;1810703;78;21670;-82
2023/04/16 01:20:15;;;;;;;21.87;19.37;;;29.80;80.90;;;;;;1770066;79;21109;-82
2023/04/16 01:22:47;;;;;;;24.85;19.67;;;29.80;81.30;;;;;;1824232;77;21171;-82
2023/04/16 01:25:18;;;;;;;21.97;19.40;;;29.80;81.40;;;;;;1772421;80;21611;-81
2023/04/16 01:27:53;;;;;;;24.50;18.82;;;29.80;81.00;;;;;;1819185;77;21116;-82
2023/04/16 01:30:24;;;;;;;25.62;20.15;;;29.80;81.50;;;;;;1762372;80;21167;-81
2023/04/16 01:32:56;;;;;;;22.67;19.62;;;29.80;81.00;;;;;;1782632;79;21624;-83
2023/04/16 01:35:27;;;;;;;25.10;19.90;;;29.80;80.60;;;;;;1782363;80;21163;-82
2023/04/16 01:37:58;;;;;;;27.67;19.98;;;29.90;81.50;;;;;;1791626;80;21182;-81
2023/04/16 01:40:30;;;;;;;22.87;19.05;;;29.90;81.30;;;;;;1824760;76;21190;-80
2023/04/16 01:43:01;;;;;;;23.22;19.67;;;29.90;80.90;;;;;;1807066;78;21095;-81
2023/04/16 01:45:36;;;;;;;24.90;18.98;;;29.90;80.90;;;;;;1820211;77;21709;-84
2023/04/16 01:48:08;;;;;;;21.62;19.32;;;29.90;80.90;;;;;;1804720;78;21102;-82
2023/04/16 01:50:39;;;;;;;24.70;18.77;;;29.90;81.60;;;;;;1812772;77;21152;-81
2023/04/16 01:53:10;;;;;;;23.47;20.20;;;29.90;81.80;;;;;;1818351;77;21155;-82
2023/04/16 01:55:41;;;;;;;22.87;20.02;;;29.90;81.60;;;;;;1798435;78;21638;-83
2023/04/16 01:58:13;;;;;;;25.02;20.55;;;29.90;81.60;;;;;;1788840;78;21212;-82
2023/04/16 02:00:44;;;;;;;24.80;20.17;;;29.90;81.70;;;;;;1809182;79;21147;-82
2023/04/16 02:03:17;;;;;;;24.07;19.62;;;29.90;81.80;;;;;;1789226;79;21154;-83
2023/04/16 02:05:48;;;;;;;23.42;18.45;;;29.90;81.70;;;;;;1862290;75;21105;-83
2023/04/16 02:08:19;;;;;;;27.35;19.10;;;30.00;81.70;;;;;;1852796;76;21623;-83
2023/04/16 02:10:51;;;;;;;24.32;18.75;;;30.00;81.80;;;;;;1853503;76;21149;-83
2023/04/16 02:13:24;;;;;;;23.77;18.95;;;30.00;81.50;;;;;;1849621;76;21129;-83
2023/04/16 02:15:55;;;;;;;22.90;18.82;;;30.10;81.80;;;;;;1854892;76;21139;-73
2023/04/16 02:18:26;;;;;;;27.93;18.67;;;30.10;81.70;;;;;;1847761;77;21090;-74
2023/04/16 02:20:59;;;;;;;26.07;18.32;;;30.10;81.70;;;;;;1863859;76;21808;-73
2023/04/16 02:23:30;;;;;;;26.37;18.42;;;30.10;82.20;;;;;;1828669;76;21093;-73
2023/04/16 02:26:03;;;;;;;23.85;18.35;;;30.20;81.40;;;;;;1859073;76;21193;-73
2023/04/16 02:28:34;;;;;;;25.37;18.23;;;30.30;81.50;;;;;;1855877;76;21219;-72
2023/04/16 02:31:05;;;;;;;23.22;17.30;;;30.40;81.20;;;;;;1852767;76;21157;-72
2023/04/16 02:33:37;;;;;;;22.75;18.25;;;30.40;81.20;;;;;;1849314;76;21054;-73
2023/04/16 02:36:10;;;;;;;20.27;17.27;;;30.50;81.10;;;;;;1858955;76;21152;-74
2023/04/16 02:38:57;;;;;;;23.15;18.65;;;30.50;81.60;;;;;;1841557;76;21102;-76
2023/04/16 02:41:41;;;;;;;21.95;17.67;;;30.60;81.20;;;;;;1865110;76;21141;-76
2023/04/16 02:44:31;;;;;;;22.67;19.33;;;30.60;81.00;;;;;;1834836;76;21219;-74
2023/04/16 02:47:17;;;;;;;24.47;18.90;;;30.70;80.60;;;;;;1856820;76;21591;-74
2023/04/16 02:49:53;;;;;;;22.65;18.32;;;30.70;80.20;;;;;;1863103;76;21185;-74
2023/04/16 02:52:24;;;;;;;20.97;18.07;;;30.80;80.30;;;;;;1840744;76;21604;-73
2023/04/16 02:55:09;;;;;;;26.20;18.10;;;30.80;80.20;;;;;;1843481;76;21484;-74
2023/04/16 02:57:44;;;;;;;23.18;19.92;;;30.80;80.40;;;;;;1847712;76;21089;-82
2023/04/16 03:00:12;;;;;;;24.43;19.30;;;30.90;81.00;;;;;;1845205;76;21600;-80
2023/04/16 03:02:49;;;;;;;29.27;20.27;;;30.90;80.50;;;;;;1859444;76;21188;-83
2023/04/16 03:05:31;;;;;;;24.50;20.57;;;31.00;79.90;;;;;;1864550;75;21190;-83
2023/04/16 03:08:09;;;;;;;26.27;20.60;;;31.10;79.50;;;;;;1840396;76;21156;-84
2023/04/16 03:10:47;;;;;;;24.40;20.40;;;31.10;79.10;;;;;;1851895;76;21161;-83
2023/04/16 03:13:16;;;;;;;24.30;20.60;;;31.20;79.00;;;;;;1810201;78;21124;-83
2023/04/16 03:15:54;;;;;;;28.00;21.62;;;31.30;78.40;;;;;;1774149;79;21706;-84
2023/04/16 03:18:34;;;;;;;23.87;20.68;;;31.40;78.10;;;;;;1746874;80;21541;-84
2023/04/16 03:21:19;;;;;;;;;;;;;;;;;;;;;
2023/04/16 03:23:46;;;;;;;25.60;20.50;;;31.60;77.40;;;;;;1777516;79;21694;-82
2023/04/16 03:26:28;;;;;;;27.10;21.45;;;31.70;77.10;;;;;;1812974;77;21486;-84
2023/04/16 03:29:20;;;;;;;25.55;20.90;;;31.80;76.90;;;;;;1835735;76;21121;-85
2023/04/16 03:32:11;;;;;;;28.60;22.27;;;31.80;77.40;;;;;;1869591;76;21661;-83
2023/04/16 03:34:47;;;;;;;23.62;20.35;;;31.80;76.40;;;;;;1844992;76;21149;-83
2023/04/16 03:40:47;;;;;;;25.35;21.35;;;31.80;76.20;;;;;;1645063;79;21178;-83
2023/04/16 03:43:18;;;;;;;26.25;20.65;;;31.80;76.20;;;;;;1865718;76;21320;-83
2023/04/16 03:45:49;;;;;;;26.77;21.37;;;31.80;76.50;;;;;;1863494;76;21902;-82
2023/04/16 03:48:20;;;;;;;24.85;21.07;;;31.80;76.50;;;;;;1859168;76;21118;-81
2023/04/16 03:50:51;;;;;;;26.33;21.25;;;31.80;76.50;;;;;;1866047;76;21125;-82
2023/04/16 03:53:22;;;;;;;26.70;21.45;;;31.80;76.40;;;;;;1848668;76;21153;-82
2023/04/16 03:55:55;;;;;;;26.05;21.93;;;31.80;76.20;;;;;;1860039;76;21140;-82
2023/04/16 03:58:26;;;;;;;23.55;20.37;;;31.80;76.30;;;;;;1848610;76;21117;-83
2023/04/16 04:00:57;;;;;;;25.25;21.95;;;31.90;76.30;;;;;;1868551;76;21137;-81
2023/04/16 04:03:30;;;;;;;26.50;21.07;;;31.80;76.30;;;;;;1866401;76;21533;-83
2023/04/16 04:06:10;;;;;;;24.90;19.98;;;31.90;76.20;;;;;;1854090;76;21090;-83
2023/04/16 04:08:42;;;;;;;25.17;22.48;;;31.80;75.90;;;;;;1868328;76;21133;-82
2023/04/16 04:11:17;;;;;;;25.50;21.95;;;31.90;75.50;;;;;;1859075;76;21090;-82
2023/04/16 04:13:47;;;;;;;26.70;21.15;;;31.80;75.30;;;;;;1858874;76;22648;-84
2023/04/16 04:16:24;;;;;;;27.40;22.05;;;31.80;75.30;;;;;;1867965;76;21109;-82
2023/04/16 04:18:55;;;;;;;24.77;21.05;;;31.80;75.90;;;;;;1861158;76;21242;-84
2023/04/16 04:21:30;;;;;;;25.37;21.77;;;31.80;76.10;;;;;;1853460;76;21113;-82
2023/04/16 04:24:01;;;;;;;25.15;22.45;;;31.80;76.20;;;;;;1863939;76;21210;-83
2023/04/16 04:26:32;;;;;;;25.32;22.02;;;31.80;76.20;;;;;;1848329;76;21622;-83
2023/04/16 04:29:03;;;;;;;24.55;21.37;;;31.80;76.30;;;;;;1863355;76;21077;-82
2023/04/16 04:31:35;;;;;;;28.12;22.55;;;31.90;76.20;;;;;;1866768;76;21069;-83
2023/04/16 04:34:06;;;;;;;24.72;21.97;;;31.90;76.10;;;;;;1847246;76;21145;-82
2023/04/16 04:36:37;;;;;;;24.12;21.62;;;32.00;76.10;;;;;;1856619;76;21177;-82
2023/04/16 04:39:08;;;;;;;28.85;22.85;;;32.00;75.80;;;;;;1865418;76;21140;-83
2023/04/16 04:41:40;;;;;;;25.60;22.30;;;32.20;75.40;;;;;;1852399;76;21401;-82
2023/04/16 04:44:11;;;;;;;30.10;23.30;;;32.30;75.20;;;;;;1862516;76;21177;-82
2023/04/16 04:46:42;;;;;;;26.33;22.10;;;32.30;74.60;;;;;;1849243;76;21516;-83
2023/04/16 04:49:13;;;;;;;26.23;23.40;;;32.40;74.00;;;;;;1878639;76;21142;-83
2023/04/16 04:51:44;;;;;;;30.50;23.65;;;32.60;72.90;;;;;;1875710;76;21612;-82
2023/04/16 04:54:16;;;;;;;30.90;23.87;;;32.70;72.20;;;;;;1856539;76;21693;-81
2023/04/16 04:56:47;;;;;;;28.38;23.62;;;32.80;72.40;;;;;;1848236;76;21161;-82
2023/04/16 04:59:18;;;;;;;25.92;22.82;;;32.90;70.70;;;;;;1850338;77;21129;-84
2023/04/16 05:01:50;;;;;;;26.27;22.50;;;33.00;71.00;;;;;;1843704;77;21219;-83
2023/04/16 05:04:21;;;;;;;29.10;23.77;;;33.10;70.10;;;;;;1852700;76;21129;-84
2023/04/16 05:06:52;;;;;;;27.60;23.38;;;33.20;70.50;;;;;;1851628;76;21094;-84
2023/04/16 05:09:23;;;;;;;27.20;24.45;;;33.20;69.90;;;;;;1853856;76;21109;-84
2023/04/16 05:11:54;;;;;;;34.48;25.52;;;33.30;69.10;;;;;;1850901;76;21153;-82
2023/04/16 05:14:25;;;;;;;26.33;23.52;;;33.40;66.90;;;;;;1863140;76;21074;-82
2023/04/16 05:16:56;;;;;;;26.30;23.52;;;33.40;66.90;;;;;;1853041;76;21219;-82
2023/04/16 05:19:28;;;;;;;27.55;23.20;;;33.40;67.10;;;;;;1850781;77;21189;-84
2023/04/16 05:22:01;;;;;;;29.32;24.60;;;33.40;67.60;;;;;;1849242;76;21125;-85
2023/04/16 05:24:31;;;;;;;33.25;23.98;;;33.50;67.70;;;;;;1856180;76;21179;-84
2023/04/16 05:27:02;;;;;;;27.45;24.45;;;33.60;67.70;;;;;;1832677;76;21159;-84
2023/04/16 05:29:33;;;;;;;28.45;24.90;;;33.70;66.70;;;;;;1853754;76;21065;-84
2023/04/16 05:32:04;;;;;;;29.20;24.20;;;33.80;67.20;;;;;;1849071;76;21157;-84
2023/04/16 05:34:36;;;;;;;30.08;25.62;;;33.80;66.70;;;;;;1850556;77;21090;-84
2023/04/16 05:37:07;;;;;;;27.65;24.75;;;33.90;65.60;;;;;;1858007;76;21922;-83
2023/04/16 05:39:38;;;;;;;29.12;24.82;;;34.00;64.60;;;;;;1850969;76;21107;-84
2023/04/16 05:42:09;;;;;;;30.72;25.75;;;34.10;65.10;;;;;;1870060;76;21093;-84
2023/04/16 05:44:41;;;;;;;29.52;24.70;;;34.20;64.30;;;;;;1845811;77;21121;-84
2023/04/16 05:47:12;;;;;;;32.25;25.45;;;34.20;65.90;;;;;;1872852;76;21170;-84
2023/04/16 05:49:43;;;;;;;29.42;26.25;;;34.20;64.70;;;;;;1853570;76;21163;-84
2023/04/16 05:52:14;;;;;;;28.12;25.23;;;34.20;63.70;;;;;;1858363;76;21081;-83
2023/04/16 05:54:46;;;;;;;27.55;24.60;;;34.10;65.30;;;;;;1869767;76;21177;-83
2023/04/16 05:57:17;;;;;;;32.20;24.90;;;34.10;68.40;;;;;;1852174;76;21135;-84
2023/04/16 05:59:48;;;;;;;30.75;24.55;;;34.00;69.10;;;;;;1862774;76;21144;-84
2023/04/16 06:02:20;;;;;;;28.98;24.70;;;34.00;68.50;;;;;;1859540;76;21205;-85
2023/04/16 06:04:51;;;;;;;28.35;24.12;;;33.90;68.70;;;;;;1877703;76;21225;-84
2023/04/16 06:07:22;;;;;;;29.05;25.95;;;33.90;69.10;;;;;;1863882;76;21140;-84
2023/04/16 06:09:53;;;;;;;31.90;28.32;;;33.90;65.70;;;;;;1846008;77;21144;-85
2023/04/16 06:12:24;;;;;;;30.55;27.13;;;34.00;64.50;;;;;;1851616;76;21131;-85
2023/04/16 06:14:55;;;;;;;31.55;27.67;;;34.00;64.40;;;;;;1851590;77;21109;-83
2023/04/16 06:17:27;;;;;;;32.45;27.73;;;34.10;62.70;;;;;;1850705;77;21640;-84
2023/04/16 06:19:58;;;;;;;31.95;26.90;;;34.10;63.10;;;;;;1850901;77;21166;-85
2023/04/16 06:22:29;;;;;;;31.85;27.67;;;34.10;62.70;;;;;;1840803;76;21165;-83
2023/04/16 06:25:00;;;;;;;31.70;28.38;;;34.10;63.10;;;;;;1850745;77;21078;-84
2023/04/16 06:27:32;;;;;;;38.75;29.82;;;34.20;62.80;;;;;;1850980;77;21203;-83
2023/04/16 06:30:03;;;;;;;31.70;28.40;;;34.20;62.50;;;;;;1850638;77;21131;-83
2023/04/16 06:32:34;;;;;;;32.17;28.95;;;34.30;62.50;;;;;;1848305;77;21727;-83
2023/04/16 06:35:07;;;;;;;30.72;27.55;;;34.30;62.80;;;;;;1852552;76;21219;-83
2023/04/16 06:37:41;;;;;;;32.25;28.80;;;34.40;63.30;;;;;;1853836;77;21699;-83
2023/04/16 06:40:12;;;;;;;31.12;27.77;;;34.40;62.30;;;;;;1849146;77;21144;-84
2023/04/16 06:42:43;;;;;;;31.80;28.32;;;34.50;62.90;;;;;;1831320;77;21723;-86
2023/04/16 06:45:15;;;;;;;30.23;27.10;;;34.50;63.50;;;;;;1850764;77;21203;-84
2023/04/16 06:47:47;;;;;;;33.92;28.75;;;34.60;62.70;;;;;;1852556;76;21599;-86
2023/04/16 06:50:18;;;;;;;32.53;29.00;;;34.70;62.20;;;;;;1850959;76;21125;-85
2023/04/16 06:52:49;;;;;;;31.35;27.98;;;34.70;60.90;;;;;;1848140;76;21541;-84
2023/04/16 06:55:20;;;;;;;31.93;28.45;;;34.70;61.50;;;;;;1849699;76;21211;-84
2023/04/16 06:57:51;;;;;;;36.48;28.20;;;34.70;60.90;;;;;;1850348;77;21113;-86
2023/04/16 07:00:22;;;;;;;31.52;28.20;;;34.70;60.40;;;;;;1850624;77;21101;-86
2023/04/16 07:02:53;;;;;;;32.35;28.32;;;34.60;60.60;;;;;;1851997;76;21166;-86
2023/04/16 07:05:26;;;;;;;30.88;27.65;;;34.50;61.40;;;;;;1850716;77;21585;-85
2023/04/16 07:07:57;;;;;;;32.08;27.58;;;34.50;62.30;;;;;;1852458;77;21207;-83
2023/04/16 07:10:28;;;;;;;32.90;28.90;;;34.40;66.00;;;;;;1850324;77;21157;-84
2023/04/16 07:13:00;;;;;;;31.25;27.22;;;34.40;66.40;;;;;;1858696;76;21169;-85
2023/04/16 07:15:31;;;;;;;38.78;30.72;;;34.40;66.80;;;;;;1842020;77;21191;-85
2023/04/16 07:18:02;;;;;;;35.25;29.07;;;34.40;67.70;;;;;;1850583;76;21203;-86
2023/04/16 07:20:35;;;;;;;32.78;28.52;;;34.30;67.50;;;;;;1851479;77;21137;-85
2023/04/16 07:23:06;;;;;;;36.80;29.05;;;34.30;67.20;;;;;;1851278;77;21062;-85
2023/04/16 07:25:37;;;;;;;34.35;28.25;;;34.30;67.10;;;;;;1850258;77;21652;-85
2023/04/16 07:28:08;;;;;;;31.27;27.70;;;34.30;66.70;;;;;;1852677;77;21205;-86
2023/04/16 07:30:40;;;;;;;29.87;26.57;;;34.40;67.70;;;;;;1851571;76;21220;-85
2023/04/16 07:33:11;;;;;;;32.50;27.65;;;34.30;67.30;;;;;;1838515;77;21133;-86
2023/04/16 07:35:42;;;;;;;33.58;27.40;;;34.40;67.60;;;;;;1855436;76;21117;-85
2023/04/16 07:38:13;;;;;;;32.23;27.42;;;34.30;67.50;;;;;;1851041;76;21186;-85
2023/04/16 07:40:45;;;;;;;30.82;27.42;;;34.30;67.30;;;;;;1848900;77;21140;-86
2023/04/16 07:43:16;;;;;;;32.15;27.75;;;34.30;67.10;;;;;;1857381;76;21184;-85
2023/04/16 07:45:47;;;;;;;33.13;26.45;;;34.30;66.10;;;;;;1847207;76;21541;-85
2023/04/16 07:48:18;;;;;;;30.90;25.97;;;34.30;66.20;;;;;;1850864;77;21105;-84
2023/04/16 07:51:08;;;;;;;29.65;26.00;;;34.30;65.50;;;;;;1863826;76;21195;-86
2023/04/16 07:53:44;;;;;;;29.67;26.42;;;34.30;66.50;;;;;;1868735;77;21106;-85
2023/04/16 07:56:26;;;;;;;33.40;27.73;;;34.40;66.60;;;;;;1852609;75;21156;-84
2023/04/16 07:58:57;;;;;;;34.05;27.87;;;34.30;66.40;;;;;;1852057;77;21131;-85
2023/04/16 08:01:29;;;;;;;32.45;28.05;;;34.30;67.10;;;;;;1841374;77;21114;-84
2023/04/16 08:04:07;;;;;;;31.62;27.85;;;34.30;67.40;;;;;;1816737;77;21097;-84
2023/04/16 08:06:38;;;;;;;33.00;27.45;;;34.30;66.80;;;;;;1802590;78;21572;-83
2023/04/16 08:09:09;;;;;;;39.55;29.52;;;34.40;66.30;;;;;;1801846;78;21151;-83
2023/04/16 08:11:41;;;;;;;31.73;27.30;;;34.30;65.90;;;;;;1808731;78;21183;-86
2023/04/16 08:14:15;;;;;;;32.25;28.02;;;34.30;65.50;;;;;;1843996;78;21138;-84
2023/04/16 08:16:46;;;;;;;34.25;27.77;;;34.30;65.10;;;;;;1848561;77;21251;-85
2023/04/16 08:19:17;;;;;;;34.85;28.25;;;34.30;65.60;;;;;;1846949;76;21199;-83
2023/04/16 08:21:48;;;;;;;35.15;26.60;;;34.30;65.80;;;;;;1846496;77;21180;-86
2023/04/16 08:24:18;;;;;;;35.48;27.62;;;34.20;65.50;;;;;;1830534;78;21611;-84
2023/04/16 08:26:49;;;;;;;29.92;26.35;;;34.20;65.90;;;;;;1843659;76;21236;-86
2023/04/16 08:29:23;;;;;;;32.60;27.58;;;34.20;65.10;;;;;;1848355;76;21136;-85
2023/04/16 08:31:59;;;;;;;31.12;26.65;;;34.20;65.40;;;;;;1844269;76;21123;-85
2023/04/16 08:34:31;;;;;;;29.95;26.75;;;34.20;65.50;;;;;;1847753;76;21784;-87
2023/04/16 08:37:04;;;;;;;34.45;28.52;;;34.20;65.50;;;;;;1847957;76;21109;-84
2023/04/16 08:39:38;;;;;;;30.88;26.97;;;34.20;66.10;;;;;;1848168;76;21114;-84
2023/04/16 09:05:04;;;;;;;29.63;26.20;;;34.10;66.20;;;;;;1817760;78;21092;-86
2023/04/16 09:07:37;;;;;;;32.40;26.45;;;34.10;65.60;;;;;;1757854;80;21130;-86
2023/04/16 09:10:58;;;;;;;34.55;26.77;;;34.10;65.50;;;;;;1678180;80;21186;-86
2023/04/16 09:13:29;;;;;;;30.27;26.68;;;34.10;65.80;;;;;;1745545;80;21213;-85
2023/04/16 09:16:33;;;;;;;;;;;;;;;;;;;;;
2023/04/16 09:19:02;;;;;;;34.23;26.52;;;34.00;65.30;;;;;;1727950;82;21221;-87
2023/04/16 09:22:22;;;;;;;33.85;27.85;;;34.10;65.30;;;;;;1682423;83;21250;-86
2023/04/16 09:35:50;;;;;;;30.90;26.45;;;34.00;65.30;;;;;;1900684;75;22159;-84
2023/04/16 09:38:12;;;;;;;29.70;26.57;;;34.00;64.90;;;;;;1854038;76;21077;-86
2023/04/16 09:40:44;;;;;;;33.92;26.70;;;34.00;64.60;;;;;;1866021;76;21181;-84
2023/04/16 09:43:17;;;;;;;29.98;26.85;;;34.00;64.30;;;;;;1869890;76;21126;-86
2023/04/16 09:45:53;;;;;;;32.95;27.60;;;34.00;64.60;;;;;;1854422;76;21172;-84
2023/04/16 09:48:34;;;;;;;31.77;26.20;;;34.10;64.70;;;;;;1857348;76;21508;-84
2023/04/16 09:51:53;;;;;;;;;;;;;;;;;;;;;
2023/04/16 09:55:18;;;;;;;30.48;27.17;;;34.00;64.80;;;;;;1710947;82;21277;-86
2023/04/16 10:01:09;;;;;;;32.73;25.68;;;34.10;63.30;;;;;;1929697;73;20295;-84
2023/04/16 10:03:45;;;;;;;29.37;25.85;;;34.10;63.00;;;;;;1858655;75;21184;-84
2023/04/16 10:06:20;;;;;;;30.43;26.45;;;34.10;62.60;;;;;;1898835;75;21210;-83
2023/04/16 10:08:55;;;;;;;32.85;27.55;;;34.10;62.40;;;;;;1892655;75;21123;-84
2023/04/16 10:11:45;;;;;;;31.27;25.82;;;34.10;62.60;;;;;;1903755;75;21737;-83
2023/04/16 10:14:24;;;;;;;30.50;25.55;;;34.10;63.10;;;;;;1900172;75;21808;-86
2023/04/16 10:17:03;;;;;;;29.80;24.63;;;34.00;63.90;;;;;;1903468;75;21113;-85
2023/04/16 10:19:32;;;;;;;27.52;23.90;;;34.00;64.10;;;;;;1896105;75;21162;-85
2023/04/16 10:22:18;;;;;;;29.98;24.50;;;34.00;64.50;;;;;;1907041;75;21144;-84
2023/04/16 10:24:50;;;;;;;33.80;24.70;;;33.90;64.60;;;;;;1904847;75;21107;-85
2023/04/16 10:27:25;;;;;;;32.80;25.02;;;33.90;64.80;;;;;;1911749;75;21151;-85
2023/04/16 10:29:57;;;;;;;28.73;24.07;;;33.80;64.80;;;;;;1905281;75;21104;-85
2023/04/16 10:32:46;;;;;;;;;;;;;;;;;;;;;
2023/04/16 10:35:22;;;;;;;31.02;24.60;;;33.80;65.00;;;;;;1856613;75;21131;-85
2023/04/16 10:37:57;;;;;;;39.92;24.98;;;33.80;64.80;;;;;;1901952;75;21124;-84
2023/04/16 10:40:32;;;;;;;32.50;26.00;;;33.80;64.80;;;;;;1873844;75;21135;-84
2023/04/16 10:43:04;;;;;;;36.80;27.70;;;33.70;64.60;;;;;;1905288;75;21104;-85
2023/04/16 10:45:52;;;;;;;33.58;29.42;;;33.70;63.50;;;;;;1903490;75;21134;-84
2023/04/16 10:48:27;;;;;;;;;;;33.70;62.70;;;;;;1906125;75;21222;-83
2023/04/16 10:51:03;;;;;;;33.40;29.70;;;33.70;62.70;;;;;;1894303;75;20268;-85
2023/04/16 10:53:35;;;;;;;33.30;29.00;;;33.80;62.30;;;;;;1901099;75;21723;-86
2023/04/16 10:56:11;;;;;;;35.98;29.10;;;33.80;62.00;;;;;;1896867;75;21131;-85
2023/04/16 10:58:48;;;;;;;32.67;29.00;;;33.80;61.90;;;;;;1893556;75;21080;-85
2023/04/16 11:04:33;;;;;;;33.70;30.23;;;33.80;61.80;;;;;;1686145;81;21538;-86
2023/04/16 11:08:07;;;;;;;;;;;;;;;;;;;;;
2023/04/16 11:10:45;;;;;;;33.28;29.77;;;33.80;61.60;;;;;;1658986;83;21300;-86
2023/04/16 11:13:17;;;;;;;33.35;29.87;;;33.80;61.80;;;;;;1736414;80;21268;-85
2023/04/16 11:15:49;;;;;;;35.13;30.32;;;33.70;61.60;;;;;;1770117;79;21175;-86
2023/04/16 11:27:41;;;;;;;33.05;29.50;;;33.70;61.90;;;;;;1892297;75;21234;-84
2023/04/16 11:30:36;;;;;;;36.65;30.68;;;33.70;62.40;;;;;;1900898;75;21156;-84
2023/04/16 11:33:35;;;;;;;;;;;;;;;;;;;;;
2023/04/16 11:36:10;;;;;;;34.03;30.32;;;33.60;62.10;;;;;;1871209;75;21156;-85
2023/04/16 11:39:00;;;;;;;39.55;32.28;;;33.60;62.10;;;;;;1897548;75;21127;-85
2023/04/16 11:42:40;;;;;;;;;;;;;;;;;;;;;
2023/04/16 11:48:58;;;;;;;34.73;29.12;;;33.60;62.30;;;;;;1913928;73;21084;-84
2023/04/16 11:51:29;;;;;;;35.75;29.25;;;33.60;62.80;;;;;;1919264;73;21990;-83
2023/04/16 11:54:35;;;;;;;;;;;;;;;;;;;;;
2023/04/16 12:00:32;;;;;;;33.38;29.77;;;33.50;62.50;;;;;;1750343;79;21210;-86
2023/04/16 12:03:08;;;;;;;36.80;30.15;;;33.50;62.70;;;;;;1835146;76;21581;-85
2023/04/16 12:05:40;;;;;;;35.15;30.00;;;33.50;62.40;;;;;;1841482;76;21124;-85
2023/04/16 12:08:12;;;;;;;37.60;30.10;;;33.50;62.70;;;;;;1844428;76;21599;-84
2023/04/16 12:10:56;;;;;;;36.33;28.52;;;33.50;62.70;;;;;;1844352;76;21580;-85
2023/04/16 12:13:28;;;;;;;44.85;29.65;;;33.50;62.70;;;;;;1847295;76;21591;-85
2023/04/16 12:16:03;;;;;;;42.38;31.05;;;33.50;63.10;;;;;;1846935;76;21127;-84
2023/04/16 12:18:37;;;;;;;41.02;29.23;;;33.40;62.70;;;;;;1843652;76;21183;-84
2023/04/16 12:21:09;;;;;;;38.90;29.48;;;33.50;62.90;;;;;;1846029;76;21115;-84
2023/04/16 12:23:41;;;;;;;36.48;27.87;;;33.40;62.80;;;;;;1848216;76;21194;-83
2023/04/16 12:26:13;;;;;;;30.82;27.50;;;33.40;62.90;;;;;;1913647;73;21198;-83
2023/04/16 12:29:19;;;;;;;39.67;28.62;;;33.40;63.10;;;;;;1925551;73;21660;-86
2023/04/16 12:31:43;;;;;;;38.43;29.73;;;33.40;63.00;;;;;;1911013;73;21100;-82
2023/04/16 12:34:18;;;;;;;37.35;30.48;;;33.30;63.70;;;;;;1915937;73;21296;-83
2023/04/16 12:36:52;;;;;;;32.70;28.93;;;33.30;64.30;;;;;;1917580;73;21496;-84
2023/04/16 12:39:24;;;;;;;34.53;28.67;;;33.30;64.60;;;;;;1925804;73;21143;-85
2023/04/16 12:41:57;;;;;;;40.78;29.63;;;33.20;64.80;;;;;;1926002;73;21178;-84
2023/04/16 12:44:29;;;;;;;36.05;28.77;;;33.20;65.00;;;;;;1915240;73;21190;-84
2023/04/16 12:47:00;;;;;;;38.78;30.15;;;33.20;65.00;;;;;;1935564;73;21672;-87
2023/04/16 12:49:31;;;;;;;38.35;29.87;;;33.10;65.00;;;;;;1935044;73;21118;-84
2023/04/16 12:52:04;;;;;;;35.60;28.85;;;33.10;64.80;;;;;;1926086;73;21212;-84
2023/04/16 12:54:38;;;;;;;32.65;28.57;;;33.10;64.60;;;;;;1936963;73;21162;-84
2023/04/16 12:57:10;;;;;;;31.50;28.10;;;33.10;65.00;;;;;;1928458;73;21616;-85
2023/04/16 12:59:43;;;;;;;32.85;29.30;;;33.10;64.80;;;;;;1862387;76;21241;-83
2023/04/16 13:04:52;;;;;;;39.95;31.75;;;33.10;66.10;;;;;;1833078;75;21132;-84
2023/04/16 13:07:32;;;;;;;40.70;31.45;;;33.00;66.30;;;;;;1927176;73;22058;-85
2023/04/16 13:10:04;;;;;;;40.58;32.25;;;33.00;65.50;;;;;;1873685;75;21131;-84
2023/04/16 13:12:35;;;;;;;42.08;32.17;;;33.00;65.30;;;;;;1920318;74;21219;-83
2023/04/16 13:15:10;;;;;;;41.63;33.63;;;33.00;65.10;;;;;;1921234;74;21193;-84
2023/04/16 13:17:49;;;;;;;46.92;34.53;;;32.90;65.10;;;;;;1816737;78;21082;-83
2023/04/16 13:20:24;;;;;;;49.25;34.53;;;32.90;65.00;;;;;;1815357;78;21249;-84
2023/04/16 13:22:56;;;;;;;45.73;34.83;;;32.90;64.90;;;;;;1761635;80;21251;-83
2023/04/16 13:25:29;;;;;;;49.70;35.80;;;32.90;64.90;;;;;;1822046;77;21193;-85
2023/04/16 13:28:00;;;;;;;47.08;35.35;;;32.80;64.70;;;;;;1828520;77;21155;-85
2023/04/16 13:30:34;;;;;;;48.92;36.95;;;32.80;65.00;;;;;;1812972;78;21215;-83
2023/04/16 13:33:05;;;;;;;51.08;36.33;;;32.80;64.80;;;;;;1815394;77;21283;-84
2023/04/16 13:35:50;;;;;;;45.95;35.80;;;32.80;64.90;;;;;;1810513;78;21103;-83
2023/04/16 13:38:18;;;;;;;44.98;34.83;;;32.80;64.80;;;;;;1817099;78;21158;-83
2023/04/16 13:40:50;;;;;;;52.60;37.45;;;32.80;64.90;;;;;;1809689;78;21767;-85
2023/04/16 13:43:22;;;;;;;53.70;38.40;;;32.80;65.00;;;;;;1902403;73;21078;-85
2023/04/16 13:45:56;;;;;;;52.93;38.53;;;32.70;64.80;;;;;;1926164;73;21256;-82
2023/04/16 13:48:32;;;;;;;45.85;37.65;;;32.70;64.70;;;;;;1924807;73;21119;-84
2023/04/16 13:51:47;;;;;;;53.70;38.95;;;32.70;64.70;;;;;;1943233;73;21093;-85
2023/04/16 13:54:02;;;;;;;51.95;37.95;;;32.70;65.00;;;;;;1924487;73;21139;-83
2023/04/16 13:57:25;;;;;;;51.02;36.80;;;32.60;64.60;;;;;;1923330;73;21588;-84
2023/04/16 14:00:04;;;;;;;47.38;36.35;;;32.60;64.50;;;;;;1800498;77;21181;-83
2023/04/16 14:02:35;;;;;;;45.35;35.60;;;32.60;64.20;;;;;;1872454;73;21119;-85
2023/04/16 14:05:12;;;;;;;43.50;34.78;;;32.50;64.10;;;;;;1923371;73;21629;-83
2023/04/16 14:07:43;;;;;;;43.68;34.40;;;32.50;63.60;;;;;;1923653;73;21252;-83
2023/04/16 14:10:14;;;;;;;43.30;33.38;;;32.50;63.70;;;;;;1872152;76;21204;-83
2023/04/16 14:12:50;;;;;;;45.75;32.85;;;32.50;63.30;;;;;;1916268;74;21126;-82
2023/04/16 14:15:36;;;;;;;;;;;;;;;;;;;;;
2023/04/16 14:18:24;;;;;;;41.08;31.45;;;32.40;62.90;;;;;;1900719;75;21120;-82
2023/04/16 14:21:07;;;;;;;;;;;;;;;;;;;;;